sensor_id;sensor_type;location;lat;lon;timestamp;P1;durP1;ratioP1;P2;durP2;ratioP2
12445;SDS011;6287;50.984;7.022;2023-06-22T00:01:23;3.22;;;2.92;;
12445;SDS011;6287;50.984;7.022;2023-06-22T00:03:49;3.35;;;3.05;;
12445;SDS011;6287;50.984;7.022;2023-06-22T00:06:14;3.60;;;3.30;;
12445;SDS011;6287;50.984;7.022;2023-06-22T00:08:42;3.47;;;3.17;;
12445;SDS011;6287;50.984;7.022;2023-06-22T00:11:10;3.47;;;3.00;;
12445;SDS011;6287;50.984;7.022;2023-06-22T00:13:38;3.42;;;3.13;;
12445;SDS011;6287;50.984;7.022;2023-06-22T00:16:07;3.63;;;3.10;;
12445;SDS011;6287;50.984;7.022;2023-06-22T00:18:36;3.33;;;3.03;;
12445;SDS011;6287;50.984;7.022;2023-06-22T00:21:04;3.72;;;2.97;;
12445;SDS011;6287;50.984;7.022;2023-06-22T00:23:33;3.28;;;2.97;;
12445;SDS011;6287;50.984;7.022;2023-06-22T00:26:02;3.30;;;3.00;;
12445;SDS011;6287;50.984;7.022;2023-06-22T00:28:27;4.65;;;2.83;;
12445;SDS011;6287;50.984;7.022;2023-06-22T00:30:56;3.30;;;3.00;;
12445;SDS011;6287;50.984;7.022;2023-06-22T00:33:21;2.72;;;2.50;;
12445;SDS011;6287;50.984;7.022;2023-06-22T00:35:47;3.15;;;2.85;;
12445;SDS011;6287;50.984;7.022;2023-06-22T00:38:17;3.50;;;3.20;;
12445;SDS011;6287;50.984;7.022;2023-06-22T00:40:43;3.10;;;2.90;;
12445;SDS011;6287;50.984;7.022;2023-06-22T00:43:12;3.20;;;2.90;;
12445;SDS011;6287;50.984;7.022;2023-06-22T00:45:38;4.05;;;3.40;;
12445;SDS011;6287;50.984;7.022;2023-06-22T00:48:06;4.10;;;3.30;;
12445;SDS011;6287;50.984;7.022;2023-06-22T00:50:32;4.80;;;3.10;;
12445;SDS011;6287;50.984;7.022;2023-06-22T00:52:59;3.70;;;3.00;;
12445;SDS011;6287;50.984;7.022;2023-06-22T00:55:33;3.15;;;2.85;;
12445;SDS011;6287;50.984;7.022;2023-06-22T00:58:08;4.97;;;2.67;;
12445;SDS011;6287;50.984;7.022;2023-06-22T01:00:35;3.45;;;3.17;;
12445;SDS011;6287;50.984;7.022;2023-06-22T01:03:04;3.28;;;3.00;;
12445;SDS011;6287;50.984;7.022;2023-06-22T01:05:35;3.50;;;3.20;;
12445;SDS011;6287;50.984;7.022;2023-06-22T01:16:07;2.95;;;2.72;;
12445;SDS011;6287;50.984;7.022;2023-06-22T01:18:45;2.92;;;2.72;;
12445;SDS011;6287;50.984;7.022;2023-06-22T01:21:15;3.60;;;2.47;;
12445;SDS011;6287;50.984;7.022;2023-06-22T01:29:24;3.70;;;3.10;;
12445;SDS011;6287;50.984;7.022;2023-06-22T01:31:53;3.17;;;2.83;;
12445;SDS011;6287;50.984;7.022;2023-06-22T01:34:23;2.95;;;2.75;;
12445;SDS011;6287;50.984;7.022;2023-06-22T01:36:52;3.15;;;2.85;;
12445;SDS011;6287;50.984;7.022;2023-06-22T01:39:21;3.00;;;2.78;;
12445;SDS011;6287;50.984;7.022;2023-06-22T01:41:49;2.88;;;2.67;;
12445;SDS011;6287;50.984;7.022;2023-06-22T01:44:16;2.85;;;2.65;;
12445;SDS011;6287;50.984;7.022;2023-06-22T01:46:44;3.50;;;3.03;;
12445;SDS011;6287;50.984;7.022;2023-06-22T01:49:11;2.70;;;2.50;;
12445;SDS011;6287;50.984;7.022;2023-06-22T01:51:37;3.15;;;2.83;;
12445;SDS011;6287;50.984;7.022;2023-06-22T01:54:08;3.47;;;2.70;;
12445;SDS011;6287;50.984;7.022;2023-06-22T01:56:36;3.20;;;2.83;;
12445;SDS011;6287;50.984;7.022;2023-06-22T02:01:41;2.95;;;2.60;;
12445;SDS011;6287;50.984;7.022;2023-06-22T02:04:10;4.15;;;3.20;;
12445;SDS011;6287;50.984;7.022;2023-06-22T02:06:47;5.03;;;3.47;;
12445;SDS011;6287;50.984;7.022;2023-06-22T02:09:16;2.78;;;2.55;;
12445;SDS011;6287;50.984;7.022;2023-06-22T02:11:47;3.83;;;3.45;;
12445;SDS011;6287;50.984;7.022;2023-06-22T02:14:18;3.33;;;2.90;;
12445;SDS011;6287;50.984;7.022;2023-06-22T02:16:47;3.22;;;2.92;;
12445;SDS011;6287;50.984;7.022;2023-06-22T02:19:13;4.40;;;3.28;;
12445;SDS011;6287;50.984;7.022;2023-06-22T02:21:43;3.20;;;2.90;;
12445;SDS011;6287;50.984;7.022;2023-06-22T02:24:12;3.00;;;2.70;;
12445;SDS011;6287;50.984;7.022;2023-06-22T02:26:38;4.68;;;2.95;;
12445;SDS011;6287;50.984;7.022;2023-06-22T02:29:09;4.28;;;3.13;;
12445;SDS011;6287;50.984;7.022;2023-06-22T02:31:35;3.45;;;2.40;;
12445;SDS011;6287;50.984;7.022;2023-06-22T02:34:03;4.15;;;2.90;;
12445;SDS011;6287;50.984;7.022;2023-06-22T02:36:31;3.33;;;2.83;;
12445;SDS011;6287;50.984;7.022;2023-06-22T02:38:59;3.38;;;3.08;;
12445;SDS011;6287;50.984;7.022;2023-06-22T02:41:28;3.38;;;3.08;;
12445;SDS011;6287;50.984;7.022;2023-06-22T02:43:54;3.40;;;2.85;;
12445;SDS011;6287;50.984;7.022;2023-06-22T02:46:22;4.60;;;3.08;;
12445;SDS011;6287;50.984;7.022;2023-06-22T02:48:47;3.33;;;2.70;;
12445;SDS011;6287;50.984;7.022;2023-06-22T02:51:15;2.85;;;2.35;;
12445;SDS011;6287;50.984;7.022;2023-06-22T02:53:43;2.58;;;2.38;;
12445;SDS011;6287;50.984;7.022;2023-06-22T02:56:12;2.67;;;2.47;;
12445;SDS011;6287;50.984;7.022;2023-06-22T02:58:40;3.00;;;2.70;;
12445;SDS011;6287;50.984;7.022;2023-06-22T03:01:08;3.10;;;2.80;;
12445;SDS011;6287;50.984;7.022;2023-06-22T03:03:35;2.85;;;2.50;;
12445;SDS011;6287;50.984;7.022;2023-06-22T03:06:00;2.95;;;2.70;;
12445;SDS011;6287;50.984;7.022;2023-06-22T03:08:26;3.20;;;2.70;;
12445;SDS011;6287;50.984;7.022;2023-06-22T03:10:52;4.55;;;2.90;;
12445;SDS011;6287;50.984;7.022;2023-06-22T03:13:19;3.22;;;2.47;;
12445;SDS011;6287;50.984;7.022;2023-06-22T03:15:45;2.92;;;2.63;;
12445;SDS011;6287;50.984;7.022;2023-06-22T03:18:11;3.22;;;2.42;;
12445;SDS011;6287;50.984;7.022;2023-06-22T03:20:39;3.20;;;2.83;;
12445;SDS011;6287;50.984;7.022;2023-06-22T03:23:04;2.67;;;2.47;;
12445;SDS011;6287;50.984;7.022;2023-06-22T03:25:32;2.80;;;2.60;;
12445;SDS011;6287;50.984;7.022;2023-06-22T03:27:58;3.20;;;2.63;;
12445;SDS011;6287;50.984;7.022;2023-06-22T03:30:25;3.08;;;2.42;;
12445;SDS011;6287;50.984;7.022;2023-06-22T03:32:53;2.72;;;2.53;;
12445;SDS011;6287;50.984;7.022;2023-06-22T03:35:22;2.67;;;2.47;;
12445;SDS011;6287;50.984;7.022;2023-06-22T03:37:50;2.97;;;2.47;;
12445;SDS011;6287;50.984;7.022;2023-06-22T03:40:20;2.65;;;2.40;;
12445;SDS011;6287;50.984;7.022;2023-06-22T03:42:48;2.58;;;2.38;;
12445;SDS011;6287;50.984;7.022;2023-06-22T03:45:14;3.05;;;2.47;;
12445;SDS011;6287;50.984;7.022;2023-06-22T03:47:39;2.58;;;2.38;;
12445;SDS011;6287;50.984;7.022;2023-06-22T03:50:10;3.53;;;2.67;;
12445;SDS011;6287;50.984;7.022;2023-06-22T03:52:35;3.40;;;2.70;;
12445;SDS011;6287;50.984;7.022;2023-06-22T03:55:02;2.95;;;2.50;;
12445;SDS011;6287;50.984;7.022;2023-06-22T03:57:30;4.63;;;3.10;;
12445;SDS011;6287;50.984;7.022;2023-06-22T03:59:59;2.67;;;2.47;;
12445;SDS011;6287;50.984;7.022;2023-06-22T04:02:25;5.88;;;3.20;;
12445;SDS011;6287;50.984;7.022;2023-06-22T04:04:53;3.85;;;2.60;;
12445;SDS011;6287;50.984;7.022;2023-06-22T04:07:20;3.30;;;2.53;;
12445;SDS011;6287;50.984;7.022;2023-06-22T04:09:45;3.78;;;2.60;;
12445;SDS011;6287;50.984;7.022;2023-06-22T04:12:13;3.95;;;3.08;;
12445;SDS011;6287;50.984;7.022;2023-06-22T04:14:42;3.50;;;2.85;;
12445;SDS011;6287;50.984;7.022;2023-06-22T04:17:09;3.63;;;3.30;;
12445;SDS011;6287;50.984;7.022;2023-06-22T04:19:36;3.90;;;3.50;;
12445;SDS011;6287;50.984;7.022;2023-06-22T04:22:01;4.72;;;3.58;;
12445;SDS011;6287;50.984;7.022;2023-06-22T04:24:27;6.07;;;4.05;;
12445;SDS011;6287;50.984;7.022;2023-06-22T04:26:55;4.15;;;3.42;;
12445;SDS011;6287;50.984;7.022;2023-06-22T04:29:22;3.95;;;3.55;;
12445;SDS011;6287;50.984;7.022;2023-06-22T04:31:56;3.70;;;3.40;;
12445;SDS011;6287;50.984;7.022;2023-06-22T04:34:23;4.55;;;3.42;;
12445;SDS011;6287;50.984;7.022;2023-06-22T04:36:51;4.53;;;3.70;;
12445;SDS011;6287;50.984;7.022;2023-06-22T04:39:17;4.25;;;3.85;;
12445;SDS011;6287;50.984;7.022;2023-06-22T04:41:46;4.63;;;4.18;;
12445;SDS011;6287;50.984;7.022;2023-06-22T04:44:16;7.25;;;3.60;;
12445;SDS011;6287;50.984;7.022;2023-06-22T04:46:52;3.63;;;3.33;;
12445;SDS011;6287;50.984;7.022;2023-06-22T04:49:24;4.28;;;3.65;;
12445;SDS011;6287;50.984;7.022;2023-06-22T04:52:01;3.80;;;3.50;;
12445;SDS011;6287;50.984;7.022;2023-06-22T04:54:28;4.20;;;3.80;;
12445;SDS011;6287;50.984;7.022;2023-06-22T04:56:53;3.67;;;3.35;;
12445;SDS011;6287;50.984;7.022;2023-06-22T04:59:23;5.07;;;3.58;;
12445;SDS011;6287;50.984;7.022;2023-06-22T05:01:53;3.97;;;3.55;;
12445;SDS011;6287;50.984;7.022;2023-06-22T05:04:22;4.68;;;3.70;;
12445;SDS011;6287;50.984;7.022;2023-06-22T05:06:51;4.00;;;3.60;;
12445;SDS011;6287;50.984;7.022;2023-06-22T05:09:20;4.53;;;4.10;;
12445;SDS011;6287;50.984;7.022;2023-06-22T05:11:48;3.72;;;3.42;;
12445;SDS011;6287;50.984;7.022;2023-06-22T05:14:14;4.10;;;3.72;;
12445;SDS011;6287;50.984;7.022;2023-06-22T05:16:45;4.63;;;3.88;;
12445;SDS011;6287;50.984;7.022;2023-06-22T05:19:11;4.60;;;4.20;;
12445;SDS011;6287;50.984;7.022;2023-06-22T05:21:38;4.57;;;4.10;;
12445;SDS011;6287;50.984;7.022;2023-06-22T05:24:05;5.80;;;4.15;;
12445;SDS011;6287;50.984;7.022;2023-06-22T05:26:39;4.35;;;3.95;;
12445;SDS011;6287;50.984;7.022;2023-06-22T05:29:07;4.65;;;3.92;;
12445;SDS011;6287;50.984;7.022;2023-06-22T05:31:33;4.72;;;4.18;;
12445;SDS011;6287;50.984;7.022;2023-06-22T05:34:02;4.88;;;4.22;;
12445;SDS011;6287;50.984;7.022;2023-06-22T05:36:30;6.97;;;4.53;;
12445;SDS011;6287;50.984;7.022;2023-06-22T05:38:56;4.82;;;4.07;;
12445;SDS011;6287;50.984;7.022;2023-06-22T05:41:25;4.63;;;4.20;;
12445;SDS011;6287;50.984;7.022;2023-06-22T05:43:57;4.85;;;3.90;;
12445;SDS011;6287;50.984;7.022;2023-06-22T05:46:24;5.95;;;4.15;;
12445;SDS011;6287;50.984;7.022;2023-06-22T05:48:52;4.35;;;3.80;;
12445;SDS011;6287;50.984;7.022;2023-06-22T05:51:18;7.10;;;4.38;;
12445;SDS011;6287;50.984;7.022;2023-06-22T05:53:43;6.40;;;4.38;;
12445;SDS011;6287;50.984;7.022;2023-06-22T05:56:14;4.45;;;4.07;;
12445;SDS011;6287;50.984;7.022;2023-06-22T05:58:40;5.00;;;3.97;;
12445;SDS011;6287;50.984;7.022;2023-06-22T06:01:08;5.35;;;4.50;;
12445;SDS011;6287;50.984;7.022;2023-06-22T06:03:34;5.57;;;4.57;;
12445;SDS011;6287;50.984;7.022;2023-06-22T06:06:08;4.65;;;4.10;;
12445;SDS011;6287;50.984;7.022;2023-06-22T06:08:38;5.53;;;4.55;;
12445;SDS011;6287;50.984;7.022;2023-06-22T06:11:06;4.75;;;4.32;;
12445;SDS011;6287;50.984;7.022;2023-06-22T06:13:34;5.10;;;4.60;;
12445;SDS011;6287;50.984;7.022;2023-06-22T06:16:00;4.78;;;4.28;;
12445;SDS011;6287;50.984;7.022;2023-06-22T06:18:28;6.70;;;4.72;;
12445;SDS011;6287;50.984;7.022;2023-06-22T06:20:56;5.38;;;4.95;;
12445;SDS011;6287;50.984;7.022;2023-06-22T06:23:21;5.15;;;4.75;;
12445;SDS011;6287;50.984;7.022;2023-06-22T06:25:47;5.97;;;5.38;;
12445;SDS011;6287;50.984;7.022;2023-06-22T06:28:13;6.40;;;5.38;;
12445;SDS011;6287;50.984;7.022;2023-06-22T06:30:41;5.50;;;4.95;;
12445;SDS011;6287;50.984;7.022;2023-06-22T06:33:07;6.15;;;5.18;;
12445;SDS011;6287;50.984;7.022;2023-06-22T06:35:33;6.40;;;5.30;;
12445;SDS011;6287;50.984;7.022;2023-06-22T06:38:02;4.97;;;4.45;;
12445;SDS011;6287;50.984;7.022;2023-06-22T06:40:30;5.45;;;4.95;;
12445;SDS011;6287;50.984;7.022;2023-06-22T06:42:58;5.70;;;5.00;;
12445;SDS011;6287;50.984;7.022;2023-06-22T06:45:28;4.90;;;4.40;;
12445;SDS011;6287;50.984;7.022;2023-06-22T06:47:58;5.80;;;5.22;;
12445;SDS011;6287;50.984;7.022;2023-06-22T06:50:27;5.93;;;5.03;;
12445;SDS011;6287;50.984;7.022;2023-06-22T06:52:57;5.40;;;4.90;;
12445;SDS011;6287;50.984;7.022;2023-06-22T06:55:28;5.60;;;5.10;;
12445;SDS011;6287;50.984;7.022;2023-06-22T06:57:57;5.15;;;4.65;;
12445;SDS011;6287;50.984;7.022;2023-06-22T07:00:29;4.72;;;4.32;;
12445;SDS011;6287;50.984;7.022;2023-06-22T07:02:57;4.60;;;4.20;;
12445;SDS011;6287;50.984;7.022;2023-06-22T07:05:22;5.68;;;5.13;;
12445;SDS011;6287;50.984;7.022;2023-06-22T07:07:50;5.10;;;4.65;;
12445;SDS011;6287;50.984;7.022;2023-06-22T07:10:21;5.28;;;4.78;;
12445;SDS011;6287;50.984;7.022;2023-06-22T07:12:49;4.68;;;4.28;;
12445;SDS011;6287;50.984;7.022;2023-06-22T07:15:17;4.80;;;4.40;;
12445;SDS011;6287;50.984;7.022;2023-06-22T07:17:42;5.28;;;4.78;;
12445;SDS011;6287;50.984;7.022;2023-06-22T07:20:08;5.07;;;4.57;;
12445;SDS011;6287;50.984;7.022;2023-06-22T07:22:41;6.30;;;5.28;;
12445;SDS011;6287;50.984;7.022;2023-06-22T07:25:09;6.28;;;5.53;;
12445;SDS011;6287;50.984;7.022;2023-06-22T07:27:36;5.85;;;5.07;;
12445;SDS011;6287;50.984;7.022;2023-06-22T07:30:08;5.38;;;4.88;;
12445;SDS011;6287;50.984;7.022;2023-06-22T07:32:36;5.00;;;4.57;;
12445;SDS011;6287;50.984;7.022;2023-06-22T07:35:02;5.72;;;5.13;;
12445;SDS011;6287;50.984;7.022;2023-06-22T07:37:29;5.78;;;4.53;;
12445;SDS011;6287;50.984;7.022;2023-06-22T07:39:58;6.22;;;4.38;;
12445;SDS011;6287;50.984;7.022;2023-06-22T07:42:24;5.05;;;4.55;;
12445;SDS011;6287;50.984;7.022;2023-06-22T07:44:50;4.80;;;4.40;;
12445;SDS011;6287;50.984;7.022;2023-06-22T07:47:20;4.70;;;4.30;;
12445;SDS011;6287;50.984;7.022;2023-06-22T07:49:50;5.28;;;4.65;;
12445;SDS011;6287;50.984;7.022;2023-06-22T07:52:18;4.47;;;4.07;;
12445;SDS011;6287;50.984;7.022;2023-06-22T07:54:47;4.50;;;4.10;;
12445;SDS011;6287;50.984;7.022;2023-06-22T07:57:15;4.30;;;4.00;;
12445;SDS011;6287;50.984;7.022;2023-06-22T07:59:50;4.70;;;4.22;;
12445;SDS011;6287;50.984;7.022;2023-06-22T08:02:16;5.15;;;4.63;;
12445;SDS011;6287;50.984;7.022;2023-06-22T08:04:46;6.05;;;4.15;;
12445;SDS011;6287;50.984;7.022;2023-06-22T08:07:12;4.43;;;4.03;;
12445;SDS011;6287;50.984;7.022;2023-06-22T08:09:38;4.95;;;4.50;;
12445;SDS011;6287;50.984;7.022;2023-06-22T08:12:13;5.25;;;4.15;;
12445;SDS011;6287;50.984;7.022;2023-06-22T08:14:45;4.45;;;4.05;;
12445;SDS011;6287;50.984;7.022;2023-06-22T08:17:13;4.93;;;4.45;;
12445;SDS011;6287;50.984;7.022;2023-06-22T08:19:39;4.60;;;4.20;;
12445;SDS011;6287;50.984;7.022;2023-06-22T08:22:07;4.28;;;3.88;;
12445;SDS011;6287;50.984;7.022;2023-06-22T08:24:35;5.15;;;4.50;;
12445;SDS011;6287;50.984;7.022;2023-06-22T08:27:00;4.78;;;4.38;;
12445;SDS011;6287;50.984;7.022;2023-06-22T08:29:26;4.55;;;4.15;;
12445;SDS011;6287;50.984;7.022;2023-06-22T08:31:52;5.57;;;4.40;;
12445;SDS011;6287;50.984;7.022;2023-06-22T08:34:19;5.07;;;4.50;;
12445;SDS011;6287;50.984;7.022;2023-06-22T08:36:46;4.80;;;4.28;;
12445;SDS011;6287;50.984;7.022;2023-06-22T08:39:16;4.82;;;4.20;;
12445;SDS011;6287;50.984;7.022;2023-06-22T08:41:42;4.70;;;4.30;;
12445;SDS011;6287;50.984;7.022;2023-06-22T08:44:10;4.40;;;4.00;;
12445;SDS011;6287;50.984;7.022;2023-06-22T08:46:38;5.10;;;4.70;;
12445;SDS011;6287;50.984;7.022;2023-06-22T08:49:05;4.70;;;4.30;;
12445;SDS011;6287;50.984;7.022;2023-06-22T08:51:31;7.07;;;5.00;;
12445;SDS011;6287;50.984;7.022;2023-06-22T08:53:59;6.32;;;4.53;;
12445;SDS011;6287;50.984;7.022;2023-06-22T08:56:25;4.88;;;4.47;;
12445;SDS011;6287;50.984;7.022;2023-06-22T08:58:52;4.90;;;4.43;;
12445;SDS011;6287;50.984;7.022;2023-06-22T09:01:18;5.75;;;4.53;;
12445;SDS011;6287;50.984;7.022;2023-06-22T09:03:44;5.22;;;4.72;;
12445;SDS011;6287;50.984;7.022;2023-06-22T09:06:18;5.13;;;4.45;;
12445;SDS011;6287;50.984;7.022;2023-06-22T09:08:47;4.95;;;4.47;;
12445;SDS011;6287;50.984;7.022;2023-06-22T09:11:15;5.38;;;4.55;;
12445;SDS011;6287;50.984;7.022;2023-06-22T09:13:43;5.80;;;4.50;;
12445;SDS011;6287;50.984;7.022;2023-06-22T09:16:09;4.40;;;4.00;;
12445;SDS011;6287;50.984;7.022;2023-06-22T09:18:35;4.50;;;3.92;;
12445;SDS011;6287;50.984;7.022;2023-06-22T09:21:08;4.68;;;4.00;;
12445;SDS011;6287;50.984;7.022;2023-06-22T09:23:36;4.30;;;3.85;;
12445;SDS011;6287;50.984;7.022;2023-06-22T09:26:04;4.25;;;3.85;;
12445;SDS011;6287;50.984;7.022;2023-06-22T09:28:30;4.55;;;4.15;;
12445;SDS011;6287;50.984;7.022;2023-06-22T09:30:56;4.30;;;3.90;;
12445;SDS011;6287;50.984;7.022;2023-06-22T09:33:26;4.13;;;3.45;;
12445;SDS011;6287;50.984;7.022;2023-06-22T09:35:52;4.32;;;3.97;;
12445;SDS011;6287;50.984;7.022;2023-06-22T09:38:19;4.28;;;3.80;;
12445;SDS011;6287;50.984;7.022;2023-06-22T09:40:45;4.43;;;4.03;;
12445;SDS011;6287;50.984;7.022;2023-06-22T09:43:13;4.50;;;4.10;;
12445;SDS011;6287;50.984;7.022;2023-06-22T09:45:39;4.70;;;4.30;;
12445;SDS011;6287;50.984;7.022;2023-06-22T09:48:06;4.47;;;4.07;;
12445;SDS011;6287;50.984;7.022;2023-06-22T09:50:35;4.22;;;3.83;;
12445;SDS011;6287;50.984;7.022;2023-06-22T09:53:02;4.18;;;3.80;;
12445;SDS011;6287;50.984;7.022;2023-06-22T09:55:28;5.22;;;4.35;;
12445;SDS011;6287;50.984;7.022;2023-06-22T09:57:55;4.47;;;4.07;;
12445;SDS011;6287;50.984;7.022;2023-06-22T10:00:26;4.82;;;3.95;;
12445;SDS011;6287;50.984;7.022;2023-06-22T10:02:51;4.20;;;3.80;;
12445;SDS011;6287;50.984;7.022;2023-06-22T10:05:17;4.65;;;4.25;;
12445;SDS011;6287;50.984;7.022;2023-06-22T10:07:43;4.45;;;4.05;;
12445;SDS011;6287;50.984;7.022;2023-06-22T10:10:14;4.50;;;4.10;;
12445;SDS011;6287;50.984;7.022;2023-06-22T10:12:45;4.95;;;4.05;;
12445;SDS011;6287;50.984;7.022;2023-06-22T10:15:12;4.88;;;4.28;;
12445;SDS011;6287;50.984;7.022;2023-06-22T10:17:39;4.47;;;4.03;;
12445;SDS011;6287;50.984;7.022;2023-06-22T10:20:08;4.35;;;3.95;;
12445;SDS011;6287;50.984;7.022;2023-06-22T10:22:39;4.60;;;4.10;;
12445;SDS011;6287;50.984;7.022;2023-06-22T10:25:09;4.20;;;3.80;;
12445;SDS011;6287;50.984;7.022;2023-06-22T10:27:40;5.25;;;4.40;;
12445;SDS011;6287;50.984;7.022;2023-06-22T10:30:09;4.95;;;4.45;;
12445;SDS011;6287;50.984;7.022;2023-06-22T10:32:42;5.15;;;4.65;;
12445;SDS011;6287;50.984;7.022;2023-06-22T10:35:08;5.05;;;4.55;;
12445;SDS011;6287;50.984;7.022;2023-06-22T10:37:44;6.40;;;5.30;;
12445;SDS011;6287;50.984;7.022;2023-06-22T10:40:16;7.47;;;5.60;;
12445;SDS011;6287;50.984;7.022;2023-06-22T10:42:44;6.85;;;5.18;;
12445;SDS011;6287;50.984;7.022;2023-06-22T10:45:12;9.77;;;5.80;;
12445;SDS011;6287;50.984;7.022;2023-06-22T10:47:40;7.10;;;5.85;;
12445;SDS011;6287;50.984;7.022;2023-06-22T10:50:08;18.63;;;6.70;;
12445;SDS011;6287;50.984;7.022;2023-06-22T10:52:37;10.20;;;6.38;;
12445;SDS011;6287;50.984;7.022;2023-06-22T10:55:02;10.95;;;6.88;;
12445;SDS011;6287;50.984;7.022;2023-06-22T10:57:30;8.60;;;6.30;;
12445;SDS011;6287;50.984;7.022;2023-06-22T11:00:01;10.45;;;6.72;;
12445;SDS011;6287;50.984;7.022;2023-06-22T11:02:32;9.65;;;7.03;;
12445;SDS011;6287;50.984;7.022;2023-06-22T11:04:58;8.32;;;6.82;;
12445;SDS011;6287;50.984;7.022;2023-06-22T11:07:25;9.20;;;7.53;;
12445;SDS011;6287;50.984;7.022;2023-06-22T11:09:53;9.10;;;7.20;;
12445;SDS011;6287;50.984;7.022;2023-06-22T11:12:19;7.30;;;6.35;;
12445;SDS011;6287;50.984;7.022;2023-06-22T11:14:49;7.80;;;6.95;;
12445;SDS011;6287;50.984;7.022;2023-06-22T11:17:16;8.95;;;6.78;;
12445;SDS011;6287;50.984;7.022;2023-06-22T11:19:45;8.98;;;7.35;;
12445;SDS011;6287;50.984;7.022;2023-06-22T11:22:13;11.98;;;7.55;;
12445;SDS011;6287;50.984;7.022;2023-06-22T11:24:39;9.80;;;7.65;;
12445;SDS011;6287;50.984;7.022;2023-06-22T11:27:04;10.77;;;7.70;;
12445;SDS011;6287;50.984;7.022;2023-06-22T11:29:32;10.07;;;7.82;;
12445;SDS011;6287;50.984;7.022;2023-06-22T11:31:58;10.27;;;7.20;;
12445;SDS011;6287;50.984;7.022;2023-06-22T11:34:29;7.72;;;6.82;;
12445;SDS011;6287;50.984;7.022;2023-06-22T11:36:55;10.15;;;7.78;;
12445;SDS011;6287;50.984;7.022;2023-06-22T11:39:20;8.55;;;7.38;;
12445;SDS011;6287;50.984;7.022;2023-06-22T11:41:46;7.28;;;6.57;;
12445;SDS011;6287;50.984;7.022;2023-06-22T11:44:11;8.25;;;6.43;;
12445;SDS011;6287;50.984;7.022;2023-06-22T11:46:39;7.65;;;6.85;;
12445;SDS011;6287;50.984;7.022;2023-06-22T11:49:05;7.50;;;6.40;;
12445;SDS011;6287;50.984;7.022;2023-06-22T11:51:33;9.50;;;7.15;;
12445;SDS011;6287;50.984;7.022;2023-06-22T11:53:58;11.38;;;8.13;;
12445;SDS011;6287;50.984;7.022;2023-06-22T11:56:24;10.20;;;7.85;;
12445;SDS011;6287;50.984;7.022;2023-06-22T11:58:50;9.93;;;7.85;;
12445;SDS011;6287;50.984;7.022;2023-06-22T12:01:21;12.10;;;8.10;;
12445;SDS011;6287;50.984;7.022;2023-06-22T12:03:53;10.40;;;7.78;;
12445;SDS011;6287;50.984;7.022;2023-06-22T12:06:21;8.20;;;7.32;;
12445;SDS011;6287;50.984;7.022;2023-06-22T12:08:46;7.57;;;6.78;;
12445;SDS011;6287;50.984;7.022;2023-06-22T12:11:12;7.85;;;7.10;;
12445;SDS011;6287;50.984;7.022;2023-06-22T12:13:40;7.43;;;6.55;;
12445;SDS011;6287;50.984;7.022;2023-06-22T12:16:05;7.55;;;6.68;;
12445;SDS011;6287;50.984;7.022;2023-06-22T12:18:32;10.10;;;7.50;;
12445;SDS011;6287;50.984;7.022;2023-06-22T12:21:00;8.77;;;6.90;;
12445;SDS011;6287;50.984;7.022;2023-06-22T12:23:28;8.25;;;6.80;;
12445;SDS011;6287;50.984;7.022;2023-06-22T12:25:53;7.85;;;7.05;;
12445;SDS011;6287;50.984;7.022;2023-06-22T12:28:22;7.43;;;6.70;;
12445;SDS011;6287;50.984;7.022;2023-06-22T12:30:52;7.00;;;6.03;;
12445;SDS011;6287;50.984;7.022;2023-06-22T12:33:17;6.97;;;6.15;;
12445;SDS011;6287;50.984;7.022;2023-06-22T12:35:43;8.05;;;6.43;;
12445;SDS011;6287;50.984;7.022;2023-06-22T12:38:13;6.53;;;5.68;;
12445;SDS011;6287;50.984;7.022;2023-06-22T12:40:39;7.00;;;6.30;;
12445;SDS011;6287;50.984;7.022;2023-06-22T12:43:07;7.53;;;6.18;;
12445;SDS011;6287;50.984;7.022;2023-06-22T12:45:40;8.10;;;5.82;;
12445;SDS011;6287;50.984;7.022;2023-06-22T12:48:08;6.85;;;6.05;;
12445;SDS011;6287;50.984;7.022;2023-06-22T12:50:34;7.30;;;6.30;;
12445;SDS011;6287;50.984;7.022;2023-06-22T12:53:00;6.35;;;5.75;;
12445;SDS011;6287;50.984;7.022;2023-06-22T12:55:31;6.03;;;5.43;;
12445;SDS011;6287;50.984;7.022;2023-06-22T12:57:57;7.65;;;5.88;;
12445;SDS011;6287;50.984;7.022;2023-06-22T13:00:23;5.90;;;5.40;;
12445;SDS011;6287;50.984;7.022;2023-06-22T13:02:48;5.75;;;5.13;;
12445;SDS011;6287;50.984;7.022;2023-06-22T13:05:19;6.18;;;5.57;;
12445;SDS011;6287;50.984;7.022;2023-06-22T13:07:44;7.50;;;5.25;;
12445;SDS011;6287;50.984;7.022;2023-06-22T13:10:13;5.57;;;5.00;;
12445;SDS011;6287;50.984;7.022;2023-06-22T13:12:38;5.53;;;5.03;;
12445;SDS011;6287;50.984;7.022;2023-06-22T13:15:04;5.35;;;4.63;;
12445;SDS011;6287;50.984;7.022;2023-06-22T13:17:32;5.80;;;4.47;;
12445;SDS011;6287;50.984;7.022;2023-06-22T13:19:58;5.07;;;4.57;;
12445;SDS011;6287;50.984;7.022;2023-06-22T13:25:07;6.43;;;4.13;;
12445;SDS011;6287;50.984;7.022;2023-06-22T13:27:37;4.82;;;4.32;;
12445;SDS011;6287;50.984;7.022;2023-06-22T13:30:06;4.90;;;4.50;;
12445;SDS011;6287;50.984;7.022;2023-06-22T13:32:35;4.45;;;4.05;;
12445;SDS011;6287;50.984;7.022;2023-06-22T13:35:01;4.50;;;3.97;;
12445;SDS011;6287;50.984;7.022;2023-06-22T13:37:29;5.32;;;3.97;;
12445;SDS011;6287;50.984;7.022;2023-06-22T13:39:55;5.28;;;3.58;;
12445;SDS011;6287;50.984;7.022;2023-06-22T13:42:24;3.00;;;2.80;;
12445;SDS011;6287;50.984;7.022;2023-06-22T13:44:52;2.85;;;2.65;;
12445;SDS011;6287;50.984;7.022;2023-06-22T13:47:20;2.80;;;2.60;;
12445;SDS011;6287;50.984;7.022;2023-06-22T13:49:45;3.20;;;2.75;;
12445;SDS011;6287;50.984;7.022;2023-06-22T13:52:14;2.88;;;2.67;;
12445;SDS011;6287;50.984;7.022;2023-06-22T13:54:42;2.97;;;2.70;;
12445;SDS011;6287;50.984;7.022;2023-06-22T13:57:07;3.10;;;2.80;;
12445;SDS011;6287;50.984;7.022;2023-06-22T13:59:35;2.45;;;2.28;;
12445;SDS011;6287;50.984;7.022;2023-06-22T14:02:00;2.67;;;2.53;;
12445;SDS011;6287;50.984;7.022;2023-06-22T14:04:28;1.80;;;1.70;;
12445;SDS011;6287;50.984;7.022;2023-06-22T14:06:56;2.20;;;2.10;;
12445;SDS011;6287;50.984;7.022;2023-06-22T14:09:24;2.70;;;2.28;;
12445;SDS011;6287;50.984;7.022;2023-06-22T14:11:50;2.30;;;2.20;;
12445;SDS011;6287;50.984;7.022;2023-06-22T14:14:18;2.60;;;2.38;;
12445;SDS011;6287;50.984;7.022;2023-06-22T14:16:44;2.70;;;2.50;;
12445;SDS011;6287;50.984;7.022;2023-06-22T14:19:14;3.13;;;2.92;;
12445;SDS011;6287;50.984;7.022;2023-06-22T14:21:42;2.80;;;2.60;;
12445;SDS011;6287;50.984;7.022;2023-06-22T14:24:10;3.13;;;2.83;;
12445;SDS011;6287;50.984;7.022;2023-06-22T14:26:40;3.13;;;2.75;;
12445;SDS011;6287;50.984;7.022;2023-06-22T14:29:08;3.53;;;3.22;;
12445;SDS011;6287;50.984;7.022;2023-06-22T14:31:36;3.53;;;3.22;;
12445;SDS011;6287;50.984;7.022;2023-06-22T14:34:04;3.30;;;3.10;;
12445;SDS011;6287;50.984;7.022;2023-06-22T14:36:31;3.00;;;2.80;;
12445;SDS011;6287;50.984;7.022;2023-06-22T14:39:03;3.00;;;2.70;;
12445;SDS011;6287;50.984;7.022;2023-06-22T14:41:30;3.35;;;2.95;;
12445;SDS011;6287;50.984;7.022;2023-06-22T14:43:58;2.55;;;2.35;;
12445;SDS011;6287;50.984;7.022;2023-06-22T14:46:26;3.13;;;2.83;;
12445;SDS011;6287;50.984;7.022;2023-06-22T14:48:54;4.47;;;2.75;;
12445;SDS011;6287;50.984;7.022;2023-06-22T14:51:20;3.75;;;2.88;;
12445;SDS011;6287;50.984;7.022;2023-06-22T14:53:50;4.78;;;2.78;;
12445;SDS011;6287;50.984;7.022;2023-06-22T14:56:18;3.15;;;2.85;;
12445;SDS011;6287;50.984;7.022;2023-06-22T14:58:45;3.17;;;2.90;;
12445;SDS011;6287;50.984;7.022;2023-06-22T15:01:14;3.47;;;3.17;;
12445;SDS011;6287;50.984;7.022;2023-06-22T15:03:42;8.30;;;4.25;;
12445;SDS011;6287;50.984;7.022;2023-06-22T15:06:08;7.22;;;5.00;;
12445;SDS011;6287;50.984;7.022;2023-06-22T15:08:39;3.95;;;3.25;;
12445;SDS011;6287;50.984;7.022;2023-06-22T15:11:06;5.85;;;4.18;;
12445;SDS011;6287;50.984;7.022;2023-06-22T15:13:35;6.07;;;4.47;;
12445;SDS011;6287;50.984;7.022;2023-06-22T15:16:03;4.68;;;3.95;;
12445;SDS011;6287;50.984;7.022;2023-06-22T15:18:32;4.90;;;3.92;;
12445;SDS011;6287;50.984;7.022;2023-06-22T15:21:03;6.63;;;4.70;;
12445;SDS011;6287;50.984;7.022;2023-06-22T15:23:30;6.35;;;4.50;;